Time;durP1;ratioP1;P1;durP2;ratioP2;P2;SDS_P1;SDS_P2;PMS_P1;PMS_P2;Temp;Humidity;BMP_temperature;BMP_pressure;BME280_temperature;BME280_humidity;BME280_pressure;Samples;Min_cycle;Max_cycle;Signal;HPM_P1;HPM_P2
2023/09/11 00:00:19;;;;;;;1.08;1.02;;;20.20;99.90;;;;;;5020990;28;20033;-70
2023/09/11 00:02:45;;;;;;;0.50;0.50;;;20.20;99.90;;;;;;5018750;28;20087;-70
2023/09/11 00:05:10;;;;;;;2.08;0.60;;;20.20;99.90;;;;;;5027342;28;20044;-70
2023/09/11 00:07:37;;;;;;;0.32;0.32;;;20.20;99.90;;;;;;5032479;28;20506;-70
2023/09/11 00:10:02;;;;;;;0.28;0.28;;;20.20;99.90;;;;;;5021309;28;20427;-70
2023/09/11 00:12:28;;;;;;;0.95;0.77;;;20.20;99.90;;;;;;5049114;28;20052;-70
2023/09/11 00:14:54;;;;;;;0.50;0.50;;;20.10;99.90;;;;;;5025590;28;20052;-70
2023/09/11 00:17:20;;;;;;;0.10;0.10;;;20.10;99.90;;;;;;5015100;28;20545;-70
2023/09/11 00:19:45;;;;;;;1.90;0.70;;;20.10;99.90;;;;;;5048042;28;20048;-70
2023/09/11 00:22:11;;;;;;;0.80;0.60;;;20.10;99.90;;;;;;5018605;28;20217;-70
2023/09/11 00:24:36;;;;;;;1.00;0.52;;;20.10;99.90;;;;;;5038292;28;20510;-70
2023/09/11 00:27:02;;;;;;;0.25;0.25;;;20.10;99.90;;;;;;5018965;28;20051;-70
2023/09/11 00:29:28;;;;;;;0.47;0.47;;;20.10;99.90;;;;;;5016719;28;20462;-70
2023/09/11 00:31:53;;;;;;;0.32;0.32;;;20.00;99.90;;;;;;5021765;28;20033;-70
2023/09/11 00:34:19;;;;;;;0.30;0.30;;;20.00;99.90;;;;;;5050291;28;20110;-70
2023/09/11 00:36:44;;;;;;;0.40;0.30;;;20.00;99.90;;;;;;5019861;28;20064;-70
2023/09/11 00:39:10;;;;;;;0.85;0.47;;;20.00;99.90;;;;;;5027151;28;20384;-70
2023/09/11 00:41:37;;;;;;;1.25;0.68;;;20.00;99.90;;;;;;5024023;28;20454;-70
2023/09/11 00:44:02;;;;;;;1.27;0.90;;;20.00;99.90;;;;;;5021871;28;20511;-70
2023/09/11 00:46:30;;;;;;;0.20;0.20;;;19.90;99.90;;;;;;5058065;28;20076;-70
2023/09/11 00:48:56;;;;;;;2.20;1.13;;;19.90;99.90;;;;;;5073627;28;20040;-70
2023/09/11 00:51:22;;;;;;;0.73;0.65;;;19.90;99.90;;;;;;5041556;28;20119;-70
2023/09/11 00:53:49;;;;;;;0.30;0.30;;;19.90;99.90;;;;;;5034735;28;20097;-70
2023/09/11 00:56:15;;;;;;;0.47;0.32;;;19.90;99.90;;;;;;5037410;28;20049;-70
2023/09/11 00:58:42;;;;;;;0.38;0.38;;;19.80;99.90;;;;;;5044041;28;21511;-70
2023/09/11 01:01:10;;;;;;;0.32;0.32;;;19.80;99.90;;;;;;5024352;28;20073;-70
2023/09/11 01:03:36;;;;;;;0.60;0.38;;;19.80;99.90;;;;;;5041534;28;20036;-70
2023/09/11 01:06:02;;;;;;;1.45;0.57;;;19.80;99.90;;;;;;5036114;28;20047;-70
2023/09/11 01:08:28;;;;;;;0.77;0.77;;;19.70;99.90;;;;;;5019298;28;20040;-70
2023/09/11 01:10:54;;;;;;;0.30;0.30;;;19.70;99.90;;;;;;5065418;28;20090;-70
2023/09/11 01:13:21;;;;;;;1.48;0.88;;;19.70;99.90;;;;;;5033268;28;20652;-70
2023/09/11 01:15:57;;;;;;;1.27;0.93;;;19.70;99.90;;;;;;5037254;28;20051;-70
2023/09/11 01:18:31;;;;;;;1.05;0.80;;;19.70;99.90;;;;;;5033570;28;20037;-70
2023/09/11 01:21:00;;;;;;;1.55;0.80;;;19.70;99.90;;;;;;5035248;28;20059;-70
2023/09/11 01:23:40;;;;;;;0.50;0.50;;;19.70;99.90;;;;;;5035645;28;20084;-70
2023/09/11 01:26:30;;;;;;;0.25;0.25;;;19.60;99.90;;;;;;5035134;28;20076;-71
2023/09/11 01:29:18;;;;;;;0.63;0.30;;;19.60;99.90;;;;;;5035113;28;20048;-70
2023/09/11 01:31:45;;;;;;;1.60;0.47;;;19.60;99.90;;;;;;5054315;28;20033;-70
2023/09/11 01:34:11;;;;;;;0.30;0.30;;;19.50;99.90;;;;;;5034748;28;20048;-70
2023/09/11 01:36:37;;;;;;;2.58;1.30;;;19.50;99.90;;;;;;5062983;28;20128;-70
2023/09/11 01:39:03;;;;;;;0.75;0.60;;;19.40;99.90;;;;;;5030459;28;20044;-70
2023/09/11 01:41:41;;;;;;;0.32;0.32;;;19.40;99.90;;;;;;5049580;28;20055;-70
2023/09/11 01:44:15;;;;;;;0.32;0.32;;;19.40;99.90;;;;;;5034148;28;20048;-70
2023/09/11 01:46:42;;;;;;;0.38;0.38;;;19.40;99.90;;;;;;5039805;28;20044;-70
2023/09/11 01:49:09;;;;;;;1.63;0.90;;;19.40;99.90;;;;;;5017618;28;20041;-70
2023/09/11 01:51:37;;;;;;;0.95;0.95;;;19.40;99.90;;;;;;5022707;28;20075;-70
2023/09/11 01:54:03;;;;;;;0.20;0.20;;;19.30;99.90;;;;;;5018243;28;20119;-70
2023/09/11 01:56:29;;;;;;;4.28;0.77;;;19.30;99.90;;;;;;5015993;28;20347;-70
2023/09/11 01:58:56;;;;;;;1.55;1.08;;;19.20;99.90;;;;;;5016286;28;20115;-70
2023/09/11 02:01:22;;;;;;;1.02;0.93;;;19.20;99.90;;;;;;5018612;28;20443;-70
2023/09/11 02:03:47;;;;;;;0.43;0.43;;;19.10;99.90;;;;;;5021006;28;20098;-70
2023/09/11 02:06:13;;;;;;;1.55;0.47;;;19.00;99.90;;;;;;5035834;28;20052;-70
2023/09/11 02:08:38;;;;;;;1.08;0.38;;;19.00;99.90;;;;;;5028939;28;20511;-71
2023/09/11 02:11:07;;;;;;;0.75;0.70;;;19.00;99.90;;;;;;5014514;28;20547;-70
2023/09/11 02:13:32;;;;;;;0.55;0.55;;;19.00;99.90;;;;;;5014066;28;20163;-70
2023/09/11 02:15:58;;;;;;;1.00;0.50;;;18.90;99.90;;;;;;5017164;28;20744;-70
2023/09/11 02:18:23;;;;;;;0.45;0.45;;;18.90;99.90;;;;;;4995942;28;20320;-70
2023/09/11 02:20:49;;;;;;;0.30;0.30;;;18.90;99.90;;;;;;5015252;28;20068;-70
2023/09/11 02:23:15;;;;;;;1.00;0.50;;;18.80;99.90;;;;;;5014611;28;20479;-71
2023/09/11 02:25:41;;;;;;;0.90;0.57;;;18.90;99.90;;;;;;5015298;28;20537;-70
2023/09/11 02:28:07;;;;;;;0.73;0.70;;;18.90;99.90;;;;;;5004235;28;20493;-71
2023/09/11 02:30:33;;;;;;;0.20;0.20;;;18.80;99.90;;;;;;5010508;28;20179;-70
2023/09/11 02:32:58;;;;;;;0.30;0.30;;;18.90;99.90;;;;;;5012360;28;20047;-70
2023/09/11 02:35:24;;;;;;;0.25;0.25;;;18.80;99.90;;;;;;5014281;28;20056;-70
2023/09/11 02:37:49;;;;;;;1.20;0.65;;;18.80;99.90;;;;;;5018501;28;20132;-70
2023/09/11 02:40:15;;;;;;;1.60;0.50;;;18.80;99.90;;;;;;5018992;28;20144;-70
2023/09/11 02:42:41;;;;;;;0.20;0.17;;;18.80;99.90;;;;;;5045902;28;20044;-71
2023/09/11 02:45:07;;;;;;;1.05;1.02;;;18.70;99.90;;;;;;5017264;28;20379;-71
2023/09/11 02:47:32;;;;;;;0.30;0.30;;;18.70;99.90;;;;;;5018546;28;20504;-71
2023/09/11 02:49:58;;;;;;;0.25;0.25;;;18.70;99.90;;;;;;5037144;28;20041;-71
2023/09/11 02:52:23;;;;;;;0.47;0.43;;;18.70;99.90;;;;;;5025778;28;20032;-71
2023/09/11 02:54:49;;;;;;;0.32;0.30;;;18.60;99.90;;;;;;5010556;28;20095;-71
2023/09/11 02:57:15;;;;;;;0.40;0.40;;;18.60;99.90;;;;;;5011343;28;20041;-71
2023/09/11 02:59:41;;;;;;;0.95;0.90;;;18.50;99.90;;;;;;5011121;28;20037;-71
2023/09/11 03:02:08;;;;;;;1.73;1.05;;;18.50;99.90;;;;;;5016451;28;20051;-71
2023/09/11 03:04:33;;;;;;;0.60;0.40;;;18.50;99.90;;;;;;5017646;28;20575;-71
2023/09/11 03:06:59;;;;;;;0.35;0.35;;;18.50;99.90;;;;;;5016174;28;20033;-71
2023/09/11 03:09:26;;;;;;;0.10;0.10;;;18.50;99.90;;;;;;5015791;28;20049;-71
2023/09/11 03:11:51;;;;;;;1.17;0.88;;;18.50;99.90;;;;;;5017956;28;20519;-71
2023/09/11 03:14:17;;;;;;;0.85;0.85;;;18.40;99.90;;;;;;5019628;28;20045;-71
2023/09/11 03:16:43;;;;;;;0.20;0.20;;;18.40;99.90;;;;;;5016835;28;20048;-71
2023/09/11 03:19:12;;;;;;;0.77;0.15;;;18.40;99.90;;;;;;5006595;28;20133;-71
2023/09/11 03:21:37;;;;;;;0.40;0.40;;;18.40;99.90;;;;;;5017865;28;20033;-71
2023/09/11 03:24:04;;;;;;;1.15;1.05;;;18.40;99.90;;;;;;5013159;28;20483;-71
2023/09/11 03:26:30;;;;;;;1.45;0.75;;;18.30;99.90;;;;;;5016842;28;20146;-71
2023/09/11 03:28:55;;;;;;;2.17;0.65;;;18.30;99.90;;;;;;5018249;28;20152;-71
2023/09/11 03:31:21;;;;;;;1.20;0.50;;;18.20;99.90;;;;;;5019593;28;20569;-71
2023/09/11 03:33:47;;;;;;;0.35;0.35;;;18.20;99.90;;;;;;5016716;28;20041;-70
2023/09/11 03:36:14;;;;;;;0.50;0.35;;;18.10;99.90;;;;;;5014877;28;20033;-71
2023/09/11 03:38:40;;;;;;;0.50;0.50;;;18.20;99.90;;;;;;5035685;28;20045;-71
2023/09/11 03:41:05;;;;;;;0.98;0.57;;;18.20;99.90;;;;;;5016561;28;20041;-71
2023/09/11 03:43:31;;;;;;;1.33;0.50;;;18.20;99.90;;;;;;5018401;28;20044;-71
2023/09/11 03:45:57;;;;;;;1.48;0.77;;;18.20;99.90;;;;;;5016672;28;20387;-71
2023/09/11 03:48:22;;;;;;;0.32;0.32;;;18.20;99.90;;;;;;5013258;28;20555;-71
2023/09/11 03:50:48;;;;;;;1.05;0.93;;;18.20;99.90;;;;;;5030660;28;20085;-71
2023/09/11 03:53:13;;;;;;;0.70;0.70;;;18.20;99.90;;;;;;5021354;28;20029;-71
2023/09/11 03:55:39;;;;;;;1.50;0.75;;;18.20;99.90;;;;;;5017568;28;20086;-71
2023/09/11 03:58:04;;;;;;;1.70;1.15;;;18.20;99.90;;;;;;5015306;28;20041;-71
2023/09/11 04:00:30;;;;;;;2.08;1.75;;;18.20;99.90;;;;;;5024652;28;20044;-71
2023/09/11 04:02:55;;;;;;;0.65;0.65;;;18.20;99.90;;;;;;5029877;28;20037;-71
2023/09/11 04:05:21;;;;;;;1.02;0.60;;;18.20;99.90;;;;;;5021614;28;20043;-71
2023/09/11 04:07:47;;;;;;;0.20;0.20;;;18.20;99.90;;;;;;5022010;28;20140;-71
2023/09/11 04:10:13;;;;;;;1.55;0.68;;;18.20;99.90;;;;;;5017471;28;20056;-71
2023/09/11 04:12:38;;;;;;;0.70;0.70;;;18.20;99.90;;;;;;5021962;28;20073;-71
2023/09/11 04:15:04;;;;;;;0.90;0.52;;;18.20;99.90;;;;;;5021402;28;20499;-71
2023/09/11 04:17:30;;;;;;;0.30;0.30;;;18.10;99.90;;;;;;5020089;28;20131;-71
2023/09/11 04:19:55;;;;;;;0.70;0.70;;;18.10;99.90;;;;;;5005488;28;20119;-71
2023/09/11 04:22:21;;;;;;;0.45;0.25;;;18.10;99.90;;;;;;5017915;28;20083;-71
2023/09/11 04:24:46;;;;;;;0.47;0.47;;;18.10;99.90;;;;;;5020751;28;20044;-71
2023/09/11 04:27:12;;;;;;;0.40;0.40;;;18.00;99.90;;;;;;5022049;28;20655;-71
2023/09/11 04:29:39;;;;;;;1.85;1.48;;;18.00;99.90;;;;;;5016744;28;20559;-71
2023/09/11 04:32:05;;;;;;;0.50;0.50;;;18.00;99.90;;;;;;5019314;28;20040;-71
2023/09/11 04:34:30;;;;;;;0.65;0.65;;;18.00;99.90;;;;;;5026007;28;20052;-71
2023/09/11 04:36:56;;;;;;;1.48;1.23;;;18.00;99.90;;;;;;5019997;28;20052;-71
2023/09/11 04:39:22;;;;;;;1.20;0.88;;;18.00;99.90;;;;;;5022086;28;20045;-71
2023/09/11 04:41:48;;;;;;;0.75;0.47;;;17.90;99.90;;;;;;5021611;28;20047;-71
2023/09/11 04:44:13;;;;;;;1.20;0.60;;;17.90;99.90;;;;;;5023689;28;20041;-71
2023/09/11 04:46:39;;;;;;;0.40;0.40;;;17.90;99.90;;;;;;5020732;28;20088;-71
2023/09/11 04:49:04;;;;;;;1.00;0.63;;;17.80;99.90;;;;;;5021226;28;20036;-71
2023/09/11 04:51:31;;;;;;;0.90;0.70;;;17.80;99.90;;;;;;5016153;28;20116;-71
2023/09/11 04:53:56;;;;;;;0.60;0.38;;;17.80;99.90;;;;;;4998358;28;20144;-71
2023/09/11 04:56:22;;;;;;;0.47;0.47;;;17.70;99.90;;;;;;5018182;28;20377;-71
2023/09/11 04:58:47;;;;;;;1.13;1.10;;;17.70;99.90;;;;;;5023611;28;20554;-71
2023/09/11 05:01:13;;;;;;;0.13;0.13;;;17.70;99.90;;;;;;5022556;28;20547;-71
2023/09/11 05:03:39;;;;;;;1.48;1.20;;;17.70;99.90;;;;;;5022352;28;20075;-71
2023/09/11 05:06:05;;;;;;;0.60;0.57;;;17.70;99.90;;;;;;5021310;28;20060;-71
2023/09/11 05:08:30;;;;;;;0.95;0.60;;;17.70;99.90;;;;;;5020062;28;20411;-71
2023/09/11 05:10:56;;;;;;;0.68;0.52;;;17.70;99.90;;;;;;5021070;28;20045;-71
2023/09/11 05:13:22;;;;;;;0.30;0.28;;;17.80;99.90;;;;;;5051242;28;20379;-71
2023/09/11 05:15:50;;;;;;;2.00;0.30;;;17.80;99.90;;;;;;5017168;28;20418;-71
2023/09/11 05:18:15;;;;;;;0.57;0.22;;;17.80;99.90;;;;;;5021208;28;20048;-71
2023/09/11 05:20:41;;;;;;;0.20;0.20;;;17.80;99.90;;;;;;5024433;28;20045;-71
2023/09/11 05:23:07;;;;;;;0.10;0.10;;;17.80;99.90;;;;;;5015288;28;20046;-71
2023/09/11 05:25:34;;;;;;;0.40;0.40;;;17.90;99.90;;;;;;5018654;28;20063;-71
2023/09/11 05:28:01;;;;;;;0.52;0.38;;;17.90;99.90;;;;;;5037710;28;20041;-71
2023/09/11 05:30:26;;;;;;;1.20;0.57;;;18.00;99.90;;;;;;5035158;28;20040;-71
2023/09/11 05:32:52;;;;;;;0.45;0.30;;;18.00;99.90;;;;;;5008993;28;20521;-71
2023/09/11 05:35:19;;;;;;;1.23;0.65;;;18.10;99.90;;;;;;5020975;28;20087;-71
2023/09/11 05:37:45;;;;;;;1.17;0.95;;;18.10;99.90;;;;;;5026501;28;20386;-71
2023/09/11 05:40:11;;;;;;;0.68;0.45;;;18.20;99.90;;;;;;5021001;28;20041;-71
2023/09/11 05:42:36;;;;;;;0.43;0.43;;;18.20;99.90;;;;;;5037964;28;20033;-71
2023/09/11 05:45:03;;;;;;;0.45;0.45;;;18.30;99.90;;;;;;5016647;28;20136;-71
2023/09/11 05:47:28;;;;;;;0.38;0.38;;;18.40;99.90;;;;;;5015507;28;20049;-71
2023/09/11 05:49:59;;;;;;;0.30;0.20;;;18.40;99.90;;;;;;5017389;28;20045;-71
2023/09/11 05:52:24;;;;;;;0.40;0.40;;;18.50;99.90;;;;;;5022604;28;20045;-71
2023/09/11 05:54:50;;;;;;;0.10;0.10;;;18.60;99.90;;;;;;5020189;28;20122;-71
2023/09/11 05:57:15;;;;;;;0.45;0.32;;;18.60;99.90;;;;;;5014891;28;20038;-71
2023/09/11 05:59:41;;;;;;;0.65;0.40;;;18.70;99.90;;;;;;5020158;28;20049;-71
2023/09/11 06:02:06;;;;;;;0.30;0.30;;;18.80;99.90;;;;;;5015258;28;20047;-71
2023/09/11 06:04:32;;;;;;;0.10;0.10;;;18.80;99.90;;;;;;5015373;28;20111;-71
2023/09/11 06:06:58;;;;;;;0.13;0.10;;;18.90;99.90;;;;;;5018215;28;20040;-71
2023/09/11 06:09:23;;;;;;;0.40;0.40;;;19.00;99.90;;;;;;5020324;28;20065;-71
2023/09/11 06:11:49;;;;;;;0.10;0.10;;;19.00;99.90;;;;;;5021245;28;20107;-71
2023/09/11 06:14:15;;;;;;;0.28;0.28;;;19.20;99.90;;;;;;5016476;28;20052;-71
2023/09/11 06:16:40;;;;;;;0.47;0.47;;;19.20;99.90;;;;;;4998711;28;20480;-71
2023/09/11 06:19:06;;;;;;;0.17;0.17;;;19.30;99.90;;;;;;5024668;28;20381;-70
2023/09/11 06:21:32;;;;;;;0.30;0.30;;;19.40;99.90;;;;;;5011218;28;20033;-71
2023/09/11 06:23:58;;;;;;;0.08;0.08;;;19.50;99.90;;;;;;5017455;28;20042;-71
2023/09/11 06:26:23;;;;;;;0.98;0.20;;;19.60;99.90;;;;;;5008739;28;20064;-71
2023/09/11 06:28:50;;;;;;;0.60;0.60;;;19.60;99.90;;;;;;5014534;28;20077;-71
2023/09/11 06:31:16;;;;;;;0.22;0.20;;;19.70;99.90;;;;;;5035979;28;20033;-71
2023/09/11 06:33:44;;;;;;;0.28;0.28;;;19.80;99.90;;;;;;5018501;28;20358;-71
2023/09/11 06:36:09;;;;;;;0.10;0.10;;;19.90;99.90;;;;;;5015676;28;20041;-71
2023/09/11 06:38:35;;;;;;;0.20;0.20;;;20.00;99.90;;;;;;5012403;28;20171;-71
2023/09/11 06:41:00;;;;;;;0.13;0.13;;;20.00;99.90;;;;;;5014130;28;20060;-71
2023/09/11 06:43:26;;;;;;;0.40;0.35;;;20.20;99.90;;;;;;5024163;28;20492;-71
2023/09/11 06:45:52;;;;;;;0.73;0.30;;;20.30;99.90;;;;;;5021787;28;20442;-72
2023/09/11 06:48:18;;;;;;;0.10;0.10;;;20.40;99.90;;;;;;5016173;28;20341;-72
2023/09/11 06:50:45;;;;;;;0.35;0.25;;;20.50;99.90;;;;;;5013727;28;20513;-71
2023/09/11 06:53:10;;;;;;;0.20;0.20;;;20.60;99.90;;;;;;5019134;28;20041;-72
2023/09/11 06:55:42;;;;;;;1.10;0.55;;;20.70;99.90;;;;;;5023182;28;20144;-72
2023/09/11 06:58:08;;;;;;;0.32;0.20;;;20.80;99.90;;;;;;5017893;28;20482;-72
2023/09/11 07:00:34;;;;;;;0.73;0.73;;;20.90;99.90;;;;;;5020148;28;20120;-72
2023/09/11 07:02:59;;;;;;;0.20;0.20;;;21.00;99.90;;;;;;5045985;28;20063;-72
2023/09/11 07:05:26;;;;;;;0.40;0.40;;;21.10;99.90;;;;;;5025713;28;20044;-71
2023/09/11 07:07:52;;;;;;;0.75;0.60;;;21.20;99.90;;;;;;5024667;28;20053;-71
2023/09/11 07:10:18;;;;;;;0.65;0.65;;;21.20;99.90;;;;;;5027387;28;20442;-72
2023/09/11 07:12:44;;;;;;;0.73;0.63;;;21.30;99.90;;;;;;5021504;28;20487;-72
2023/09/11 07:15:10;;;;;;;1.00;0.98;;;21.40;99.90;;;;;;5022593;28;20080;-72
2023/09/11 07:17:36;;;;;;;0.10;0.10;;;21.40;99.90;;;;;;5023824;28;20080;-72
2023/09/11 07:20:04;;;;;;;0.20;0.20;;;21.50;99.90;;;;;;5027128;28;20056;-72
2023/09/11 07:22:30;;;;;;;0.30;0.30;;;21.60;99.90;;;;;;5026770;28;20034;-72
2023/09/11 07:24:56;;;;;;;1.13;0.80;;;21.60;99.90;;;;;;5022749;28;20042;-72
2023/09/11 07:27:22;;;;;;;0.80;0.70;;;21.70;99.90;;;;;;5023864;28;20124;-72
2023/09/11 07:29:49;;;;;;;0.85;0.52;;;21.70;99.90;;;;;;5014198;28;20057;-72
2023/09/11 07:32:14;;;;;;;0.63;0.40;;;21.80;99.90;;;;;;5019263;28;20056;-72
2023/09/11 07:34:40;;;;;;;0.50;0.50;;;21.80;99.90;;;;;;5026032;28;20041;-72
2023/09/11 07:37:06;;;;;;;0.65;0.55;;;21.90;99.90;;;;;;5018326;28;20094;-72
2023/09/11 07:39:31;;;;;;;2.45;0.70;;;21.90;99.90;;;;;;5018127;28;20072;-72
2023/09/11 07:41:58;;;;;;;0.77;0.55;;;22.00;99.90;;;;;;5015624;28;20037;-72
2023/09/11 07:44:23;;;;;;;0.85;0.73;;;22.10;99.90;;;;;;5016549;28;20061;-72
2023/09/11 07:46:49;;;;;;;0.40;0.40;;;22.10;99.90;;;;;;5031284;28;20079;-72
2023/09/11 07:49:14;;;;;;;0.95;0.40;;;22.10;99.90;;;;;;5021320;28;20072;-72
2023/09/11 07:51:40;;;;;;;0.50;0.50;;;22.20;99.90;;;;;;5030100;28;20084;-72
2023/09/11 07:54:06;;;;;;;0.52;0.52;;;22.20;99.90;;;;;;5009716;28;20037;-72
2023/09/11 07:56:33;;;;;;;1.20;1.10;;;22.30;99.90;;;;;;5018721;28;20037;-72
2023/09/11 07:59:00;;;;;;;0.40;0.40;;;22.30;99.90;;;;;;5026570;28;20040;-72
2023/09/11 08:01:26;;;;;;;1.02;0.77;;;22.40;99.90;;;;;;5019203;28;20460;-72
2023/09/11 08:03:51;;;;;;;2.15;1.92;;;22.50;99.90;;;;;;5020341;28;20478;-71
2023/09/11 08:06:18;;;;;;;2.13;1.38;;;22.60;99.90;;;;;;5034871;28;20040;-72
2023/09/11 08:08:44;;;;;;;2.30;1.08;;;22.60;99.90;;;;;;5023650;28;20460;-71
2023/09/11 08:11:11;;;;;;;1.10;0.70;;;22.70;99.90;;;;;;5030519;28;20125;-71
2023/09/11 08:13:37;;;;;;;1.13;0.85;;;22.80;99.90;;;;;;5025539;28;20049;-71
2023/09/11 08:16:02;;;;;;;0.93;0.85;;;22.90;99.90;;;;;;5023136;28;20087;-71
2023/09/11 08:18:28;;;;;;;1.02;0.85;;;23.00;99.90;;;;;;5027508;28;20029;-70
2023/09/11 08:20:53;;;;;;;1.70;1.60;;;23.00;99.90;;;;;;5021514;28;20443;-70
2023/09/11 08:23:19;;;;;;;1.50;1.13;;;23.10;99.90;;;;;;5021053;28;20037;-69
2023/09/11 08:25:44;;;;;;;2.55;1.17;;;23.20;99.90;;;;;;5024661;28;20052;-71
2023/09/11 08:28:10;;;;;;;1.33;1.10;;;23.30;99.90;;;;;;5024917;28;20403;-71
2023/09/11 08:30:36;;;;;;;2.08;1.42;;;23.30;99.90;;;;;;5020392;28;20044;-71
2023/09/11 08:33:03;;;;;;;1.65;1.25;;;23.30;99.90;;;;;;5020016;28;20183;-71
2023/09/11 08:35:29;;;;;;;2.22;0.95;;;23.40;99.90;;;;;;5018624;28;20099;-71
2023/09/11 08:37:54;;;;;;;2.58;1.77;;;23.50;99.90;;;;;;5020930;28;20049;-71
2023/09/11 08:40:26;;;;;;;1.50;0.90;;;23.50;99.90;;;;;;5024510;28;20040;-71
2023/09/11 08:42:52;;;;;;;1.77;1.55;;;23.60;99.90;;;;;;5017960;28;20060;-71
2023/09/11 08:45:17;;;;;;;2.03;1.38;;;23.60;99.90;;;;;;5024878;28;20067;-70
2023/09/11 08:47:44;;;;;;;1.10;0.63;;;23.70;99.90;;;;;;5006841;28;20033;-69
2023/09/11 08:50:11;;;;;;;3.03;2.22;;;23.70;99.90;;;;;;5020337;28;20400;-70
2023/09/11 08:52:39;;;;;;;2.58;1.02;;;23.80;99.90;;;;;;5018436;28;20048;-70
2023/09/11 08:55:09;;;;;;;4.07;2.08;;;23.80;99.90;;;;;;5021317;28;20047;-71
2023/09/11 08:57:38;;;;;;;1.65;1.55;;;23.80;99.90;;;;;;5007382;28;20041;-70
2023/09/11 09:00:09;;;;;;;1.17;1.00;;;23.90;99.90;;;;;;5025929;28;20479;-70
2023/09/11 09:02:35;;;;;;;2.55;2.08;;;23.90;99.90;;;;;;5020191;28;20472;-70
2023/09/11 09:05:03;;;;;;;1.88;1.17;;;24.00;99.90;;;;;;5022711;28;20055;-70
2023/09/11 09:07:31;;;;;;;2.50;1.65;;;24.00;99.90;;;;;;5029539;28;20075;-70
2023/09/11 09:09:57;;;;;;;1.00;0.98;;;24.10;99.90;;;;;;5032104;28;20480;-69
2023/09/11 09:12:27;;;;;;;3.05;2.15;;;24.00;99.90;;;;;;5047737;28;20108;-69
2023/09/11 09:14:53;;;;;;;3.25;1.80;;;24.10;99.90;;;;;;5024771;28;20045;-69
2023/09/11 09:17:19;;;;;;;1.73;0.65;;;24.20;99.90;;;;;;5031124;28;20032;-70
2023/09/11 09:19:44;;;;;;;4.15;1.48;;;24.20;99.90;;;;;;5047806;28;20400;-70
2023/09/11 09:22:12;;;;;;;4.90;1.27;;;24.30;99.90;;;;;;5027747;28;20043;-70
2023/09/11 09:24:48;;;;;;;3.45;1.15;;;24.30;99.90;;;;;;5015759;28;20045;-71
2023/09/11 09:27:13;;;;;;;2.55;1.83;;;24.40;99.90;;;;;;5017500;28;20029;-70
2023/09/11 09:29:39;;;;;;;1.92;1.83;;;24.50;99.90;;;;;;5022212;28;20107;-71
2023/09/11 09:32:07;;;;;;;1.38;1.00;;;24.50;99.90;;;;;;5041526;28;20037;-71
2023/09/11 09:34:34;;;;;;;2.33;1.70;;;24.60;99.90;;;;;;5028044;28;20608;-69
2023/09/11 09:37:00;;;;;;;2.90;2.13;;;24.60;99.90;;;;;;5024538;28;20544;-71
2023/09/11 09:39:28;;;;;;;1.25;1.15;;;24.70;99.90;;;;;;5028827;28;20759;-70
2023/09/11 09:42:00;;;;;;;2.25;1.80;;;24.80;99.90;;;;;;5016136;28;20076;-71
2023/09/11 09:44:41;;;;;;;1.85;1.05;;;24.90;99.90;;;;;;5024774;28;20162;-69
2023/09/11 09:47:15;;;;;;;11.30;2.35;;;24.90;99.90;;;;;;5007721;28;20087;-70
2023/09/11 09:49:44;;;;;;;0.68;0.57;;;24.90;99.90;;;;;;5042455;28;20407;-70
2023/09/11 09:52:10;;;;;;;5.45;1.52;;;24.90;99.90;;;;;;5041891;28;20053;-73
2023/09/11 09:54:45;;;;;;;1.85;1.75;;;25.00;99.90;;;;;;5048512;28;20073;-70
2023/09/11 09:57:13;;;;;;;10.95;3.22;;;25.10;99.90;;;;;;5046349;28;20044;-70
2023/09/11 09:59:40;;;;;;;1.73;1.63;;;25.10;99.90;;;;;;5055078;28;20048;-70
2023/09/11 10:02:09;;;;;;;1.73;1.63;;;25.20;99.90;;;;;;5045047;28;20118;-71
2023/09/11 10:04:34;;;;;;;1.42;1.33;;;25.30;99.90;;;;;;5042808;28;20041;-71
2023/09/11 10:07:00;;;;;;;2.42;2.22;;;25.40;99.90;;;;;;5036499;28;20502;-70
2023/09/11 10:09:26;;;;;;;3.65;2.45;;;25.40;99.90;;;;;;5041498;28;20074;-70
2023/09/11 10:11:52;;;;;;;1.65;1.52;;;25.50;99.90;;;;;;5040260;28;20032;-72
2023/09/11 10:14:18;;;;;;;1.20;1.10;;;25.50;99.90;;;;;;5040993;28;20044;-70
2023/09/11 10:16:46;;;;;;;5.22;2.28;;;25.60;99.90;;;;;;5041338;28;20502;-71
2023/09/11 10:19:12;;;;;;;1.65;1.35;;;25.60;99.90;;;;;;5024680;28;20060;-70
2023/09/11 10:21:38;;;;;;;3.88;1.27;;;25.70;99.90;;;;;;5057310;28;20048;-71
2023/09/11 10:24:05;;;;;;;9.35;1.88;;;25.80;99.90;;;;;;5070753;28;20463;-71
2023/09/11 10:26:45;;;;;;;3.63;2.28;;;25.80;99.90;;;;;;5057153;28;20574;-73
2023/09/11 10:29:17;;;;;;;4.47;2.38;;;25.80;99.90;;;;;;5057674;28;20455;-71
2023/09/11 10:31:51;;;;;;;5.07;1.17;;;25.70;99.90;;;;;;5049449;28;21891;-72
2023/09/11 10:34:18;;;;;;;1.35;1.15;;;25.70;99.90;;;;;;5035473;28;20052;-71
2023/09/11 10:36:49;;;;;;;2.28;1.73;;;25.80;99.90;;;;;;5046014;28;20041;-72
2023/09/11 10:39:16;;;;;;;0.63;0.50;;;25.80;99.90;;;;;;5044747;28;20075;-71
2023/09/11 10:41:42;;;;;;;3.42;1.70;;;25.80;99.90;;;;;;5038939;28;20032;-72
2023/09/11 10:44:08;;;;;;;3.15;1.60;;;25.90;99.90;;;;;;5032858;28;20041;-69
2023/09/11 10:46:38;;;;;;;1.83;1.48;;;26.00;99.90;;;;;;5037929;28;20053;-70
2023/09/11 10:49:14;;;;;;;1.77;1.45;;;26.00;99.90;;;;;;5042928;28;20479;-72
2023/09/11 10:51:40;;;;;;;2.42;2.15;;;26.10;99.90;;;;;;5046634;28;20095;-71
2023/09/11 10:54:07;;;;;;;4.10;3.63;;;26.00;99.90;;;;;;5069402;28;20071;-72
2023/09/11 10:56:36;;;;;;;1.83;1.63;;;26.00;99.90;;;;;;5053387;28;20565;-72
2023/09/11 10:59:03;;;;;;;1.40;1.17;;;26.00;99.90;;;;;;5046948;28;20052;-70
2023/09/11 11:01:31;;;;;;;3.15;1.20;;;26.00;99.90;;;;;;5047579;28;20050;-70
2023/09/11 11:03:56;;;;;;;1.10;0.90;;;26.00;99.90;;;;;;5049344;28;20074;-70
2023/09/11 11:06:23;;;;;;;1.88;1.77;;;26.00;99.90;;;;;;5024285;28;20075;-69
2023/09/11 11:08:49;;;;;;;5.47;2.25;;;26.10;99.90;;;;;;5054005;28;20531;-69
2023/09/11 11:11:25;;;;;;;1.35;1.25;;;26.20;99.90;;;;;;5058590;28;20175;-70
2023/09/11 11:14:10;;;;;;;0.80;0.80;;;26.30;99.90;;;;;;5047027;28;20051;-72
2023/09/11 11:16:37;;;;;;;1.08;0.90;;;26.30;99.90;;;;;;5052924;28;20075;-73
2023/09/11 11:19:03;;;;;;;1.13;0.93;;;26.30;99.90;;;;;;5054320;28;20062;-69
2023/09/11 11:21:38;;;;;;;3.47;1.83;;;26.40;99.90;;;;;;5043119;28;20039;-68
2023/09/11 11:24:05;;;;;;;1.70;1.52;;;26.50;99.90;;;;;;5054766;28;20398;-72
2023/09/11 11:26:35;;;;;;;1.55;1.30;;;26.40;99.90;;;;;;5048176;28;20048;-72
2023/09/11 11:29:00;;;;;;;2.50;1.70;;;26.40;99.90;;;;;;5048441;28;20714;-71
2023/09/11 11:31:27;;;;;;;8.77;1.73;;;26.50;99.90;;;;;;5048743;28;20125;-74
2023/09/11 11:33:57;;;;;;;2.35;1.10;;;26.50;99.90;;;;;;5069929;28;20051;-69
2023/09/11 11:36:26;;;;;;;1.70;1.60;;;26.50;99.90;;;;;;5081757;28;20033;-70
2023/09/11 11:38:55;;;;;;;2.65;1.85;;;26.50;99.90;;;;;;5045682;28;20045;-73
2023/09/11 11:41:21;;;;;;;3.75;2.17;;;26.60;99.90;;;;;;5056166;28;20037;-72
2023/09/11 11:43:47;;;;;;;1.92;1.08;;;26.60;99.90;;;;;;5035912;28;20041;-70
2023/09/11 11:46:15;;;;;;;0.75;0.75;;;26.50;99.90;;;;;;5080493;28;20071;-71
2023/09/11 11:48:42;;;;;;;1.50;1.05;;;26.50;99.90;;;;;;5044013;28;20109;-73
2023/09/11 11:51:08;;;;;;;3.60;1.77;;;26.50;99.90;;;;;;5058386;28;20496;-71
2023/09/11 11:53:34;;;;;;;2.38;0.98;;;26.50;99.90;;;;;;5037252;28;20099;-73
2023/09/11 11:56:03;;;;;;;0.50;0.50;;;26.60;99.90;;;;;;5068486;28;20044;-72
2023/09/11 11:58:28;;;;;;;1.05;0.95;;;26.60;99.90;;;;;;5035868;28;20045;-72
2023/09/11 12:00:59;;;;;;;11.65;2.75;;;26.50;99.90;;;;;;5041346;28;20503;-74
2023/09/11 12:03:30;;;;;;;4.50;1.80;;;26.50;99.90;;;;;;5042740;28;20036;-71
2023/09/11 12:05:57;;;;;;;1.10;1.08;;;26.50;99.90;;;;;;5034724;28;20040;-73
2023/09/11 12:08:26;;;;;;;2.25;1.08;;;26.50;99.90;;;;;;5046635;28;20049;-71
2023/09/11 12:10:52;;;;;;;2.13;0.88;;;26.60;99.90;;;;;;5058693;28;20049;-71
2023/09/11 12:13:20;;;;;;;0.95;0.95;;;26.60;99.90;;;;;;5041957;28;20519;-72
2023/09/11 12:15:53;;;;;;;0.63;0.63;;;26.60;99.90;;;;;;5034334;28;20114;-71
2023/09/11 12:18:21;;;;;;;3.25;1.85;;;26.70;99.90;;;;;;5034996;28;20033;-72
2023/09/11 12:20:58;;;;;;;1.02;0.88;;;26.70;99.90;;;;;;5039376;28;20076;-72
2023/09/11 12:23:24;;;;;;;1.65;1.25;;;26.60;99.90;;;;;;5041327;28;20041;-71
2023/09/11 12:25:51;;;;;;;1.75;0.88;;;26.70;99.90;;;;;;5045677;28;20051;-76
2023/09/11 12:28:18;;;;;;;4.82;1.27;;;26.80;99.90;;;;;;5045370;28;20037;-76
2023/09/11 12:30:44;;;;;;;0.73;0.65;;;26.80;99.90;;;;;;5052968;28;20044;-71
2023/09/11 12:33:14;;;;;;;1.92;1.63;;;26.80;99.90;;;;;;5046204;28;20045;-70
2023/09/11 12:35:41;;;;;;;1.88;1.40;;;26.90;99.90;;;;;;5045582;28;20045;-74
2023/09/11 12:38:10;;;;;;;2.13;0.65;;;26.80;99.90;;;;;;5042834;28;20049;-70
2023/09/11 12:40:37;;;;;;;0.85;0.60;;;26.80;99.90;;;;;;5034627;28;20052;-73
2023/09/11 12:43:03;;;;;;;0.40;0.40;;;26.70;99.90;;;;;;5050590;28;20067;-72